createdAt,value
2023-05-17T00:00:03.274Z,982.14
2023-05-17T00:01:03.919Z,982.14
2023-05-17T00:03:03.778Z,982.17
2023-05-17T00:04:03.882Z,982.08
2023-05-17T00:05:03.634Z,982.14
2023-05-17T00:07:03.725Z,982.14
2023-05-17T00:08:03.479Z,982.34
2023-05-17T00:09:04.032Z,982.11
2023-05-17T00:10:03.398Z,982.23
2023-05-17T00:11:03.597Z,982.23
2023-05-17T00:12:03.226Z,982.23
2023-05-17T00:13:03.207Z,982.34
2023-05-17T00:14:03.801Z,982.20
2023-05-17T00:16:03.736Z,982.20
2023-05-17T00:17:03.394Z,982.14
2023-05-17T00:18:03.089Z,982.06
2023-05-17T00:19:03.657Z,982.12
2023-05-17T00:20:03.827Z,982.32
2023-05-17T00:21:03.819Z,982.17
2023-05-17T00:22:03.686Z,982.23
2023-05-17T00:24:02.933Z,982.20
2023-05-17T00:25:03.763Z,982.20
2023-05-17T00:27:03.089Z,982.29
2023-05-17T00:28:03.659Z,982.29
2023-05-17T00:29:03.676Z,982.26
2023-05-17T00:30:03.261Z,982.12
2023-05-17T00:31:03.898Z,982.20
2023-05-17T00:33:03.702Z,982.35
2023-05-17T00:34:03.436Z,982.18
2023-05-17T00:35:03.109Z,982.18
2023-05-17T00:36:03.827Z,982.26
2023-05-17T00:37:03.292Z,982.21
2023-05-17T00:38:03.965Z,982.24
2023-05-17T00:40:02.915Z,982.24
2023-05-17T00:41:03.598Z,982.24
2023-05-17T00:43:03.924Z,982.15
2023-05-17T00:44:03.672Z,982.18
2023-05-17T00:45:03.256Z,982.16
2023-05-17T00:46:03.797Z,982.18
2023-05-17T00:48:04.221Z,982.13
2023-05-17T00:49:03.766Z,982.21
2023-05-17T00:50:03.389Z,982.21
2023-05-17T00:51:03.092Z,982.16
2023-05-17T00:52:03.493Z,982.07
2023-05-17T00:54:03.850Z,982.22
2023-05-17T00:56:03.034Z,982.19
2023-05-17T00:57:03.662Z,982.19
2023-05-17T00:59:03.699Z,982.25
2023-05-17T01:01:03.659Z,982.16
2023-05-17T01:03:03.764Z,982.39
2023-05-17T01:05:03.162Z,982.14
2023-05-17T01:06:03.677Z,982.19
2023-05-17T01:07:03.420Z,982.08
2023-05-17T01:08:03.719Z,982.16
2023-05-17T01:10:03.892Z,982.17
2023-05-17T01:11:03.658Z,982.00
2023-05-17T01:12:03.217Z,982.11
2023-05-17T01:13:03.693Z,982.22
2023-05-17T01:14:03.612Z,982.08
2023-05-17T01:15:03.377Z,982.14
2023-05-17T01:16:03.854Z,982.14
2023-05-17T01:18:03.280Z,982.11
2023-05-17T01:19:03.867Z,982.03
2023-05-17T01:21:03.265Z,982.28
2023-05-17T01:22:03.682Z,982.17
2023-05-17T01:23:03.435Z,982.34
2023-05-17T01:24:03.936Z,982.31
2023-05-17T01:26:03.690Z,982.37
2023-05-17T01:28:03.792Z,982.42
2023-05-17T01:30:03.932Z,982.31
2023-05-17T01:32:03.769Z,982.20
2023-05-17T01:33:03.721Z,982.20
2023-05-17T01:35:03.057Z,982.26
2023-05-17T01:36:03.641Z,982.34
2023-05-17T01:38:03.847Z,982.31
2023-05-17T01:40:03.714Z,982.31
2023-05-17T01:41:03.773Z,982.48
2023-05-17T01:42:03.519Z,982.37
2023-05-17T01:43:03.088Z,982.31
2023-05-17T01:44:03.623Z,982.51
2023-05-17T01:45:03.752Z,982.37
2023-05-17T01:46:03.307Z,982.29
2023-05-17T01:47:03.109Z,982.54
2023-05-17T01:48:03.856Z,982.60
2023-05-17T01:50:03.611Z,982.43
2023-05-17T01:52:03.724Z,982.43
2023-05-17T01:54:03.077Z,982.46
2023-05-17T01:55:03.573Z,982.46
2023-05-17T01:57:03.867Z,982.43
2023-05-17T01:58:03.771Z,982.46
2023-05-17T01:59:03.512Z,982.38
2023-05-17T02:00:03.155Z,982.52
2023-05-17T02:01:03.696Z,982.41
2023-05-17T02:02:03.648Z,982.44
2023-05-17T02:04:04.180Z,982.38
2023-05-17T02:05:03.791Z,982.46
2023-05-17T02:06:03.388Z,982.44
2023-05-17T02:07:02.922Z,982.46
2023-05-17T02:08:03.487Z,982.52
2023-05-17T02:09:03.385Z,982.49
2023-05-17T02:10:03.640Z,982.41
2023-05-17T02:11:03.760Z,982.47
2023-05-17T02:12:03.532Z,982.47
2023-05-17T02:13:03.113Z,982.24
2023-05-17T02:14:03.692Z,982.41
2023-05-17T02:15:03.903Z,982.47
2023-05-17T02:17:03.079Z,982.58
2023-05-17T02:18:03.924Z,982.61
2023-05-17T02:19:03.609Z,982.64
2023-05-17T02:20:03.333Z,982.44
2023-05-17T02:21:03.784Z,982.44
2023-05-17T02:23:03.957Z,982.47
2023-05-17T02:24:03.769Z,982.55
2023-05-17T02:25:03.371Z,982.42
2023-05-17T02:27:03.615Z,982.42
2023-05-17T02:28:03.189Z,982.58
2023-05-17T02:29:03.226Z,982.36
2023-05-17T02:30:03.841Z,982.67
2023-05-17T02:31:03.890Z,982.45
2023-05-17T02:33:04.001Z,982.33
2023-05-17T02:34:03.697Z,982.53
2023-05-17T02:35:03.803Z,982.36
2023-05-17T02:36:03.268Z,982.45
2023-05-17T02:37:03.912Z,982.50
2023-05-17T02:39:03.711Z,982.31
2023-05-17T02:40:03.783Z,982.36
2023-05-17T02:41:03.308Z,982.39
2023-05-17T02:42:03.717Z,982.51
2023-05-17T02:43:03.426Z,982.51
2023-05-17T02:44:02.933Z,982.39
2023-05-17T02:45:03.557Z,982.34
2023-05-17T02:46:03.949Z,982.39
2023-05-17T02:47:03.857Z,982.34
2023-05-17T02:48:03.425Z,982.40
2023-05-17T02:49:03.971Z,982.37
2023-05-17T02:51:03.269Z,982.28
2023-05-17T02:52:03.889Z,982.40
2023-05-17T02:53:03.494Z,982.37
2023-05-17T02:54:03.028Z,982.43
2023-05-17T02:55:03.628Z,982.34
2023-05-17T02:57:03.557Z,982.57
2023-05-17T02:58:03.172Z,982.60
2023-05-17T02:59:03.752Z,982.35
2023-05-17T03:01:03.811Z,982.37
2023-05-17T03:02:03.466Z,982.40
2023-05-17T03:03:04.095Z,982.40
2023-05-17T03:05:03.160Z,982.43
2023-05-17T03:06:03.717Z,982.54
2023-05-17T03:07:07.611Z,982.60
2023-05-17T03:08:03.679Z,982.57
2023-05-17T03:09:03.348Z,982.49
2023-05-17T03:10:03.882Z,982.43
2023-05-17T03:11:03.384Z,982.57
2023-05-17T03:13:03.579Z,982.35
2023-05-17T03:14:03.257Z,982.46
2023-05-17T03:15:03.004Z,982.60
2023-05-17T03:16:03.528Z,982.52
2023-05-17T03:17:03.332Z,982.52
2023-05-17T03:18:03.130Z,982.49
2023-05-17T03:19:04.117Z,982.49
2023-05-17T03:20:03.757Z,982.49
2023-05-17T03:21:03.301Z,982.49
2023-05-17T03:22:03.316Z,982.46
2023-05-17T03:23:03.020Z,982.46
2023-05-17T03:24:03.926Z,982.52
2023-05-17T03:25:03.547Z,982.46
2023-05-17T03:27:04.024Z,982.63
2023-05-17T03:28:03.989Z,982.44
2023-05-17T03:29:03.629Z,982.63
2023-05-17T03:30:03.131Z,982.72
2023-05-17T03:31:03.866Z,982.75
2023-05-17T03:33:03.792Z,982.75
2023-05-17T03:34:03.638Z,982.66
2023-05-17T03:35:03.366Z,982.63
2023-05-17T03:36:03.823Z,982.82
2023-05-17T03:37:03.394Z,982.85
2023-05-17T03:38:03.312Z,982.85
2023-05-17T03:39:03.602Z,982.88
2023-05-17T03:40:03.955Z,982.91
2023-05-17T03:41:03.110Z,982.75
2023-05-17T03:42:03.477Z,982.79
2023-05-17T03:43:03.168Z,982.85
2023-05-17T03:44:03.817Z,982.79
2023-05-17T03:46:03.068Z,982.91
2023-05-17T03:47:03.555Z,982.88
2023-05-17T03:48:03.306Z,982.72
2023-05-17T03:49:03.939Z,982.88
2023-05-17T03:50:03.468Z,982.91
2023-05-17T03:52:03.822Z,982.75
2023-05-17T03:53:03.352Z,982.99
2023-05-17T03:54:03.846Z,982.94
2023-05-17T03:55:03.377Z,982.94
2023-05-17T03:56:02.965Z,982.88
2023-05-17T03:57:03.617Z,983.07
2023-05-17T03:58:03.923Z,982.91
2023-05-17T03:59:03.437Z,982.96
2023-05-17T04:00:03.250Z,982.96
2023-05-17T04:01:02.984Z,983.02
2023-05-17T04:02:03.491Z,982.96
2023-05-17T04:03:03.213Z,983.04
2023-05-17T04:04:03.780Z,982.90
2023-05-17T04:06:03.742Z,983.15
2023-05-17T04:07:03.943Z,982.96
2023-05-17T04:08:03.939Z,983.04
2023-05-17T04:09:03.545Z,983.23
2023-05-17T04:10:03.100Z,983.09
2023-05-17T04:11:03.521Z,983.15
2023-05-17T04:12:03.926Z,983.09
2023-05-17T04:14:03.902Z,982.94
2023-05-17T04:15:03.710Z,983.02
2023-05-17T04:17:03.918Z,982.99
2023-05-17T04:18:03.768Z,982.98
2023-05-17T04:19:03.250Z,982.95
2023-05-17T04:20:03.229Z,983.03
2023-05-17T04:21:03.867Z,982.92
2023-05-17T04:22:03.543Z,982.97
2023-05-17T04:23:03.049Z,983.05
2023-05-17T04:24:03.846Z,982.86
2023-05-17T04:25:04.461Z,983.02
2023-05-17T04:27:04.049Z,983.19
2023-05-17T04:29:03.628Z,983.08
2023-05-17T04:30:03.880Z,983.10
2023-05-17T04:31:03.574Z,983.13
2023-05-17T04:33:03.932Z,983.16
2023-05-17T04:34:03.530Z,983.21
2023-05-17T04:35:03.113Z,983.18
2023-05-17T04:36:03.840Z,983.15
2023-05-17T04:38:03.616Z,983.34
2023-05-17T04:39:03.931Z,983.25
2023-05-17T04:41:03.083Z,983.37
2023-05-17T04:42:03.764Z,983.24
2023-05-17T04:43:03.883Z,983.35
2023-05-17T04:44:03.190Z,983.45
2023-05-17T04:45:03.705Z,983.32
2023-05-17T04:47:03.805Z,983.42
2023-05-17T04:49:03.263Z,983.36
2023-05-17T04:50:03.902Z,983.52
2023-05-17T04:52:07.679Z,983.55
2023-05-17T04:53:03.840Z,983.49
2023-05-17T04:54:03.377Z,983.48
2023-05-17T04:55:03.050Z,983.45
2023-05-17T04:56:03.721Z,983.44
2023-05-17T04:57:03.523Z,983.41
2023-05-17T04:58:03.132Z,983.52
2023-05-17T04:59:03.595Z,983.45
2023-05-17T05:01:03.866Z,983.59
2023-05-17T05:03:03.769Z,983.73
2023-05-17T05:04:03.645Z,983.56
2023-05-17T05:05:03.600Z,983.73
2023-05-17T05:06:03.906Z,983.67
2023-05-17T05:07:03.789Z,983.69
2023-05-17T05:09:03.084Z,983.77
2023-05-17T05:10:03.514Z,983.83
2023-05-17T05:11:03.894Z,983.74
2023-05-17T05:12:03.603Z,983.68
2023-05-17T05:13:03.824Z,983.80
2023-05-17T05:14:03.586Z,983.83
2023-05-17T05:16:03.497Z,983.86
2023-05-17T05:17:03.273Z,984.08
2023-05-17T05:18:03.105Z,984.03
2023-05-17T05:19:03.653Z,984.17
2023-05-17T05:20:03.416Z,984.20
2023-05-17T05:22:03.008Z,984.15
2023-05-17T05:23:03.628Z,984.26
2023-05-17T05:24:03.971Z,984.17
2023-05-17T05:25:03.592Z,984.34
2023-05-17T05:26:03.300Z,984.17
2023-05-17T05:27:07.717Z,984.06
2023-05-17T05:28:03.813Z,984.14
2023-05-17T05:29:03.349Z,984.16
2023-05-17T05:31:03.602Z,984.24
2023-05-17T05:33:03.962Z,984.27
2023-05-17T05:35:03.901Z,984.21
2023-05-17T05:36:03.491Z,984.38
2023-05-17T05:38:03.715Z,984.32
2023-05-17T05:39:03.945Z,984.29
2023-05-17T05:40:03.541Z,984.38
2023-05-17T05:42:03.419Z,984.61
2023-05-17T05:43:03.070Z,984.46
2023-05-17T05:44:03.653Z,984.52
2023-05-17T05:46:03.681Z,984.52
2023-05-17T05:47:03.126Z,984.58
2023-05-17T05:48:03.938Z,984.69
2023-05-17T05:50:03.792Z,984.61
2023-05-17T05:52:03.473Z,984.72
2023-05-17T05:53:19.645Z,984.75
2023-05-17T05:55:03.578Z,984.82
2023-05-17T05:57:03.535Z,984.77
2023-05-17T05:58:03.245Z,984.79
2023-05-17T05:59:03.831Z,984.81
2023-05-17T06:00:03.750Z,984.65
2023-05-17T06:01:07.742Z,984.78
2023-05-17T06:03:03.737Z,984.80
2023-05-17T06:04:03.458Z,984.88
2023-05-17T06:05:03.828Z,984.91
2023-05-17T06:07:04.106Z,984.88
2023-05-17T06:09:03.764Z,984.91
2023-05-17T06:10:03.351Z,985.08
2023-05-17T06:11:03.840Z,984.93
2023-05-17T06:12:03.373Z,985.08
2023-05-17T06:13:03.119Z,985.02
2023-05-17T06:14:03.888Z,985.13
2023-05-17T06:17:03.778Z,985.13
2023-05-17T06:19:03.526Z,985.10
2023-05-17T06:20:03.067Z,985.13
2023-05-17T06:21:03.540Z,985.16
2023-05-17T06:22:03.150Z,985.25
2023-05-17T06:23:03.703Z,985.19
2023-05-17T06:24:05.403Z,985.11
2023-05-17T06:25:03.453Z,985.22
2023-05-17T06:27:03.713Z,985.22
2023-05-17T06:29:03.474Z,985.22
2023-05-17T06:30:07.893Z,985.16
2023-05-17T06:32:03.627Z,985.16
2023-05-17T06:33:03.346Z,985.10
2023-05-17T06:34:03.221Z,985.18
2023-05-17T06:35:03.741Z,985.20
2023-05-17T06:37:02.976Z,985.14
2023-05-17T06:38:03.743Z,985.13
2023-05-17T06:40:16.342Z,985.10
2023-05-17T06:41:03.875Z,985.24
2023-05-17T06:42:03.000Z,985.12
2023-05-17T06:43:03.533Z,985.23
2023-05-17T06:44:03.221Z,985.31
2023-05-17T06:45:03.694Z,985.26
2023-05-17T06:47:03.790Z,985.28
2023-05-17T06:48:03.802Z,985.50
2023-05-17T06:49:03.792Z,985.39
2023-05-17T06:50:03.829Z,985.42
2023-05-17T06:51:03.293Z,985.62
2023-05-17T06:52:03.910Z,985.51
2023-05-17T06:54:03.536Z,985.51
2023-05-17T06:55:03.271Z,985.59
2023-05-17T06:56:03.913Z,985.59
2023-05-17T06:58:03.052Z,985.51
2023-05-17T06:59:03.602Z,985.54
2023-05-17T07:01:03.680Z,985.57
2023-05-17T07:02:03.433Z,985.62
2023-05-17T07:03:03.538Z,985.62
2023-05-17T07:04:04.489Z,985.65
2023-05-17T07:05:03.494Z,985.57
2023-05-17T07:06:03.426Z,985.68
2023-05-17T07:07:02.923Z,985.77
2023-05-17T07:08:03.496Z,985.54
2023-05-17T07:10:03.658Z,985.59
2023-05-17T07:11:03.243Z,985.62
2023-05-17T07:12:03.670Z,985.65
2023-05-17T07:13:03.472Z,985.62
2023-05-17T07:14:03.968Z,985.59
2023-05-17T07:16:03.210Z,985.57
2023-05-17T07:17:03.921Z,985.68
2023-05-17T07:18:03.919Z,985.56
2023-05-17T07:19:03.814Z,985.59
2023-05-17T07:20:03.528Z,985.56
2023-05-17T07:21:04.128Z,985.54
2023-05-17T07:23:03.060Z,985.54
2023-05-17T07:24:03.514Z,985.59
2023-05-17T07:26:03.817Z,985.65
2023-05-17T07:28:02.999Z,985.68
2023-05-17T07:29:03.568Z,985.62
2023-05-17T07:31:03.662Z,985.71
2023-05-17T07:32:03.572Z,985.62
2023-05-17T07:33:03.058Z,985.59
2023-05-17T07:34:03.059Z,985.62
2023-05-17T07:35:04.107Z,985.65
2023-05-17T07:36:03.130Z,985.65
2023-05-17T07:37:03.561Z,985.62
2023-05-17T07:39:03.718Z,985.62
2023-05-17T07:40:03.433Z,985.74
2023-05-17T07:41:03.165Z,985.74
2023-05-17T07:42:05.843Z,985.71
2023-05-17T07:43:03.046Z,985.57
2023-05-17T07:44:03.852Z,985.68
2023-05-17T07:46:03.764Z,985.57
2023-05-17T07:47:03.492Z,985.68
2023-05-17T07:48:03.272Z,985.68
2023-05-17T07:49:03.934Z,985.68
2023-05-17T07:50:03.526Z,985.68
2023-05-17T07:52:03.926Z,985.74
2023-05-17T07:54:03.067Z,985.66
2023-05-17T07:55:03.674Z,985.63
2023-05-17T07:57:03.760Z,985.66
2023-05-17T07:58:04.589Z,985.83
2023-05-17T08:00:03.299Z,985.66
2023-05-17T08:01:03.940Z,985.69
2023-05-17T08:02:03.408Z,985.72
2023-05-17T08:03:04.013Z,985.75
2023-05-17T08:05:04.141Z,985.80
2023-05-17T08:07:03.087Z,985.78
2023-05-17T08:08:03.778Z,985.83
2023-05-17T08:09:03.519Z,985.78
2023-05-17T08:10:03.019Z,985.86
2023-05-17T08:11:03.485Z,985.86
2023-05-17T08:13:03.863Z,985.75
2023-05-17T08:15:04.264Z,985.75
2023-05-17T08:16:14.723Z,985.89
2023-05-17T08:17:03.110Z,985.81
2023-05-17T08:18:05.533Z,985.72
2023-05-17T08:19:03.765Z,985.75
2023-05-17T08:20:03.460Z,985.75
2023-05-17T08:22:03.569Z,985.86
2023-05-17T08:24:04.586Z,985.83
2023-05-17T08:25:03.604Z,985.66
2023-05-17T08:26:03.224Z,985.69
2023-05-17T08:27:03.841Z,985.74
2023-05-17T08:28:03.631Z,985.60
2023-05-17T08:29:03.234Z,985.65
2023-05-17T08:30:11.561Z,985.62
2023-05-17T08:31:04.347Z,985.62
2023-05-17T08:32:03.582Z,985.68
2023-05-17T08:33:03.589Z,985.68
2023-05-17T08:34:03.907Z,985.79
2023-05-17T08:36:03.745Z,985.85
2023-05-17T08:38:03.077Z,985.65
2023-05-17T08:39:03.614Z,985.70
2023-05-17T08:41:03.837Z,985.70
2023-05-17T08:43:03.722Z,985.87
2023-05-17T08:45:03.764Z,985.87
2023-05-17T08:47:03.664Z,985.88
2023-05-17T08:48:03.460Z,986.05
2023-05-17T08:49:03.421Z,985.88
2023-05-17T08:50:03.922Z,985.94
2023-05-17T08:51:03.599Z,986.02
2023-05-17T08:53:03.690Z,986.08
2023-05-17T08:55:03.876Z,985.94
2023-05-17T08:57:03.134Z,986.00
2023-05-17T08:58:03.673Z,986.17
2023-05-17T09:00:03.836Z,986.06
2023-05-17T09:02:03.060Z,986.03
2023-05-17T09:03:03.829Z,986.06
2023-05-17T09:04:03.469Z,986.11
2023-05-17T09:05:03.657Z,986.03
2023-05-17T09:06:04.081Z,985.97
2023-05-17T09:07:03.537Z,986.06
2023-05-17T09:08:03.059Z,986.03
2023-05-17T09:09:03.729Z,986.14
2023-05-17T09:11:03.954Z,986.09
2023-05-17T09:13:03.627Z,985.97
2023-05-17T09:15:03.932Z,986.09
2023-05-17T09:16:03.944Z,986.23
2023-05-17T09:17:03.653Z,986.09
2023-05-17T09:18:03.458Z,986.17
2023-05-17T09:19:03.502Z,986.20
2023-05-17T09:20:03.396Z,986.03
2023-05-17T09:21:03.854Z,986.12
2023-05-17T09:22:03.355Z,986.06
2023-05-17T09:23:03.463Z,986.12
2023-05-17T09:24:08.666Z,985.97
2023-05-17T09:25:03.759Z,986.00
2023-05-17T09:26:03.351Z,986.15
2023-05-17T09:27:03.020Z,986.00
2023-05-17T09:28:03.066Z,986.12
2023-05-17T09:29:03.680Z,986.00
2023-05-17T09:31:03.916Z,986.09
2023-05-17T09:32:03.103Z,986.17
2023-05-17T09:33:03.710Z,986.17
2023-05-17T09:35:03.812Z,985.97
2023-05-17T09:37:03.084Z,986.26
2023-05-17T09:38:03.320Z,986.00
2023-05-17T09:39:03.036Z,986.00
2023-05-17T09:40:03.539Z,986.05
2023-05-17T09:42:03.523Z,986.14
2023-05-17T09:44:03.716Z,986.11
2023-05-17T09:45:03.950Z,986.02
2023-05-17T09:46:03.681Z,986.08
2023-05-17T09:48:03.813Z,986.14
2023-05-17T09:49:04.255Z,986.08
2023-05-17T09:50:03.892Z,986.13
2023-05-17T09:52:03.708Z,986.13
2023-05-17T09:54:03.923Z,986.05
2023-05-17T09:55:03.647Z,986.07
2023-05-17T09:56:03.381Z,986.04
2023-05-17T09:57:03.916Z,986.01
2023-05-17T09:58:03.711Z,985.95
2023-05-17T09:59:03.349Z,986.12
2023-05-17T10:00:03.959Z,986.15
2023-05-17T10:02:03.410Z,986.18
2023-05-17T10:03:03.296Z,986.18
2023-05-17T10:04:03.915Z,986.06
2023-05-17T10:06:03.142Z,986.09
2023-05-17T10:07:03.663Z,986.23
2023-05-17T10:09:03.902Z,986.29
2023-05-17T10:11:04.522Z,986.34
2023-05-17T10:13:03.056Z,986.26
2023-05-17T10:14:03.677Z,986.17
2023-05-17T10:15:03.450Z,986.34
2023-05-17T10:16:03.269Z,986.37
2023-05-17T10:17:04.026Z,986.48
2023-05-17T10:19:03.794Z,986.48
2023-05-17T10:20:03.547Z,986.56
2023-05-17T10:22:23.035Z,986.68
2023-05-17T10:23:03.995Z,986.43
2023-05-17T10:24:03.518Z,986.71
2023-05-17T10:25:03.114Z,986.46
2023-05-17T10:26:03.758Z,986.55
2023-05-17T10:27:03.570Z,986.59
2023-05-17T10:28:03.161Z,986.57
2023-05-17T10:29:03.634Z,986.52
2023-05-17T10:31:03.619Z,986.77
2023-05-17T10:33:03.931Z,986.71
2023-05-17T10:34:03.653Z,986.57
2023-05-17T10:35:12.392Z,986.66
2023-05-17T10:36:03.336Z,986.71
2023-05-17T10:37:03.851Z,986.69
2023-05-17T10:39:03.162Z,986.60
2023-05-17T10:40:03.300Z,986.63
2023-05-17T10:41:03.902Z,986.60
2023-05-17T10:42:15.498Z,986.57
2023-05-17T10:43:03.583Z,986.63
2023-05-17T10:44:03.300Z,986.55
2023-05-17T10:45:03.749Z,986.57
2023-05-17T10:47:03.912Z,986.41
2023-05-17T10:48:03.814Z,986.52
2023-05-17T10:49:03.311Z,986.71
2023-05-17T10:50:03.520Z,986.56
2023-05-17T10:52:03.289Z,986.67
2023-05-17T10:53:03.755Z,986.67
2023-05-17T10:55:03.860Z,986.54
2023-05-17T10:56:03.397Z,986.48
2023-05-17T10:58:03.162Z,986.58
2023-05-17T10:59:03.878Z,986.42
2023-05-17T11:01:03.119Z,986.58
2023-05-17T11:02:03.856Z,986.44
2023-05-17T11:03:03.772Z,986.55
2023-05-17T11:04:03.340Z,986.44
2023-05-17T11:05:03.149Z,986.55
2023-05-17T11:06:04.077Z,986.52
2023-05-17T11:08:03.306Z,986.43
2023-05-17T11:09:03.895Z,986.54
2023-05-17T11:11:02.997Z,986.54
2023-05-17T11:12:03.593Z,986.59
2023-05-17T11:13:03.426Z,986.54
2023-05-17T11:14:03.948Z,986.51
2023-05-17T11:16:03.832Z,986.54
2023-05-17T11:17:03.377Z,986.64
2023-05-17T11:18:03.345Z,986.54
2023-05-17T11:19:03.824Z,986.58
2023-05-17T11:20:03.893Z,986.54
2023-05-17T11:21:03.832Z,986.56
2023-05-17T11:23:03.881Z,986.67
2023-05-17T11:25:03.084Z,986.70
2023-05-17T11:26:16.293Z,986.70
2023-05-17T11:27:03.456Z,986.67
2023-05-17T11:28:02.942Z,986.76
2023-05-17T11:29:03.638Z,986.82
2023-05-17T11:31:03.679Z,986.90
2023-05-17T11:33:07.173Z,986.85
2023-05-17T11:35:03.163Z,986.99
2023-05-17T11:36:03.719Z,986.84
2023-05-17T11:38:03.897Z,986.90
2023-05-17T11:39:08.557Z,986.93
2023-05-17T11:40:03.891Z,986.93
2023-05-17T11:41:06.316Z,986.84
2023-05-17T11:43:03.108Z,986.87
2023-05-17T11:44:03.573Z,986.84
2023-05-17T11:45:03.235Z,986.78
2023-05-17T11:46:03.719Z,986.98
2023-05-17T11:48:03.891Z,986.75
2023-05-17T11:49:03.378Z,986.89
2023-05-17T11:50:03.840Z,986.72
2023-05-17T11:51:03.441Z,986.80
2023-05-17T11:52:02.996Z,986.71
2023-05-17T11:53:03.509Z,986.68
2023-05-17T11:54:03.989Z,986.71
2023-05-17T11:56:03.232Z,986.77
2023-05-17T11:57:03.001Z,986.77
2023-05-17T11:58:03.109Z,986.91
2023-05-17T11:59:03.666Z,986.88
2023-05-17T12:01:03.258Z,987.00
2023-05-17T12:02:03.837Z,986.82
2023-05-17T12:04:03.438Z,987.00
2023-05-17T12:05:03.223Z,986.97
2023-05-17T12:06:03.560Z,986.94
2023-05-17T12:07:03.157Z,986.97
2023-05-17T12:08:03.753Z,986.97
2023-05-17T12:10:03.877Z,986.91
2023-05-17T12:11:03.751Z,986.88
2023-05-17T12:13:03.797Z,986.71
2023-05-17T12:15:03.055Z,986.82
2023-05-17T12:16:03.028Z,986.87
2023-05-17T12:17:03.223Z,986.93
2023-05-17T12:18:03.911Z,987.05
2023-05-17T12:19:03.821Z,986.96
2023-05-17T12:20:03.404Z,987.02
2023-05-17T12:21:03.242Z,986.87
2023-05-17T12:22:03.803Z,987.05
2023-05-17T12:24:03.148Z,986.96
2023-05-17T12:25:03.724Z,986.87
2023-05-17T12:26:03.454Z,986.90
2023-05-17T12:27:03.886Z,986.99
2023-05-17T12:29:02.914Z,987.19
2023-05-17T12:30:03.598Z,987.05
2023-05-17T12:31:03.398Z,987.19
2023-05-17T12:33:03.803Z,987.02
2023-05-17T12:34:03.654Z,987.05
2023-05-17T12:36:03.203Z,987.17
2023-05-17T12:37:03.771Z,987.25
2023-05-17T12:39:03.767Z,987.17
2023-05-17T12:41:03.939Z,987.23
2023-05-17T12:43:03.041Z,987.08
2023-05-17T12:44:16.380Z,987.11
2023-05-17T12:45:03.976Z,987.11
2023-05-17T12:46:04.242Z,987.23
2023-05-17T12:47:03.581Z,987.14
2023-05-17T12:48:03.946Z,986.96
2023-05-17T12:49:03.582Z,987.08
2023-05-17T12:50:03.356Z,987.07
2023-05-17T12:51:03.833Z,987.01
2023-05-17T12:52:03.552Z,987.07
2023-05-17T12:54:03.733Z,987.01
2023-05-17T12:56:03.863Z,986.95
2023-05-17T12:57:03.668Z,987.18
2023-05-17T12:58:03.250Z,987.24
2023-05-17T12:59:03.754Z,987.21
2023-05-17T13:00:03.428Z,987.27
2023-05-17T13:01:03.091Z,987.12
2023-05-17T13:02:03.798Z,987.18
2023-05-17T13:03:03.517Z,987.15
2023-05-17T13:04:03.761Z,987.21
2023-05-17T13:05:03.495Z,987.26
2023-05-17T13:06:03.396Z,987.18
2023-05-17T13:07:03.914Z,987.38
2023-05-17T13:08:03.692Z,987.38
2023-05-17T13:10:03.916Z,987.32
2023-05-17T13:12:03.208Z,987.38
2023-05-17T13:13:03.857Z,987.26
2023-05-17T13:15:03.883Z,987.35
2023-05-17T13:17:03.258Z,987.32
2023-05-17T13:18:03.989Z,987.20
2023-05-17T13:19:04.019Z,987.49
2023-05-17T13:20:04.400Z,987.23
2023-05-17T13:21:02.956Z,987.34
2023-05-17T13:22:03.560Z,987.31
2023-05-17T13:24:03.685Z,987.40
2023-05-17T13:26:03.944Z,987.19
2023-05-17T13:27:03.605Z,987.28
2023-05-17T13:29:03.596Z,987.28
2023-05-17T13:31:03.740Z,987.28
2023-05-17T13:33:04.024Z,987.42
2023-05-17T13:34:03.858Z,987.42
2023-05-17T13:35:03.335Z,987.34
2023-05-17T13:37:03.606Z,987.57
2023-05-17T13:38:03.358Z,987.63
2023-05-17T13:39:03.797Z,987.54
2023-05-17T13:41:02.958Z,987.66
2023-05-17T13:42:03.176Z,987.67
2023-05-17T13:43:03.937Z,987.69
2023-05-17T13:44:03.650Z,987.78
2023-05-17T13:45:03.257Z,987.61
2023-05-17T13:46:03.870Z,987.75
2023-05-17T13:47:03.486Z,987.61
2023-05-17T13:48:03.183Z,987.58
2023-05-17T13:49:03.228Z,987.66
2023-05-17T13:50:03.005Z,987.66
2023-05-17T13:51:02.974Z,987.69
2023-05-17T13:52:03.230Z,987.58
2023-05-17T13:53:03.809Z,987.52
2023-05-17T13:54:05.587Z,987.63
2023-05-17T13:55:03.805Z,987.66
2023-05-17T13:57:03.709Z,987.68
2023-05-17T13:59:03.923Z,987.57
2023-05-17T14:00:03.531Z,987.68
2023-05-17T14:02:03.706Z,987.68
2023-05-17T14:03:03.552Z,987.74
2023-05-17T14:04:03.368Z,987.63
2023-05-17T14:05:03.859Z,987.83
2023-05-17T14:06:03.629Z,987.60
2023-05-17T14:07:03.203Z,987.69
2023-05-17T14:08:03.203Z,987.63
2023-05-17T14:09:03.804Z,987.66
2023-05-17T14:11:03.071Z,987.69
2023-05-17T14:12:03.374Z,987.91
2023-05-17T14:13:03.869Z,987.84
2023-05-17T14:15:03.084Z,987.83
2023-05-17T14:16:03.699Z,987.83
2023-05-17T14:17:03.441Z,987.83
2023-05-17T14:18:03.344Z,987.91
2023-05-17T14:19:05.321Z,987.97
2023-05-17T14:20:04.121Z,987.80
2023-05-17T14:21:03.766Z,987.83
2023-05-17T14:23:03.031Z,987.88
2023-05-17T14:24:03.813Z,987.80
2023-05-17T14:25:03.602Z,987.80
2023-05-17T14:26:03.219Z,987.80
2023-05-17T14:27:03.131Z,987.82
2023-05-17T14:28:03.884Z,987.85
2023-05-17T14:29:03.647Z,987.80
2023-05-17T14:30:03.316Z,987.93
2023-05-17T14:31:03.855Z,987.96
2023-05-17T14:32:03.617Z,987.86
2023-05-17T14:34:04.040Z,988.13
2023-05-17T14:35:03.734Z,987.88
2023-05-17T14:36:03.484Z,987.93
2023-05-17T14:38:03.863Z,987.96
2023-05-17T14:40:08.177Z,988.08
2023-05-17T14:41:03.305Z,987.99
2023-05-17T14:42:03.824Z,987.88
2023-05-17T14:44:03.026Z,988.08
2023-05-17T14:45:03.637Z,987.99
2023-05-17T14:47:03.183Z,988.11
2023-05-17T14:48:03.894Z,988.05
2023-05-17T14:49:03.611Z,988.08
2023-05-17T14:51:03.992Z,988.08
2023-05-17T14:53:03.854Z,988.05
2023-05-17T14:55:02.938Z,988.26
2023-05-17T14:56:03.599Z,988.11
2023-05-17T14:58:03.623Z,988.11
2023-05-17T14:59:03.336Z,988.14
2023-05-17T15:00:03.966Z,988.06
2023-05-17T15:01:06.931Z,988.14
2023-05-17T15:02:03.249Z,988.14
2023-05-17T15:03:03.566Z,988.03
2023-05-17T15:04:04.028Z,988.05
2023-05-17T15:05:04.235Z,988.08
2023-05-17T15:06:10.238Z,988.17
2023-05-17T15:07:03.959Z,988.05
2023-05-17T15:09:03.121Z,988.14
2023-05-17T15:10:03.352Z,988.02
2023-05-17T15:11:03.884Z,988.13
2023-05-17T15:13:03.000Z,988.19
2023-05-17T15:14:03.116Z,988.13
2023-05-17T15:15:03.095Z,988.19
2023-05-17T15:16:03.451Z,988.16
2023-05-17T15:17:03.902Z,988.20
2023-05-17T15:18:03.684Z,988.20
2023-05-17T15:19:03.481Z,988.27
2023-05-17T15:20:03.277Z,988.25
2023-05-17T15:21:03.929Z,988.17
2023-05-17T15:23:03.928Z,988.26
2023-05-17T15:25:03.017Z,988.26
2023-05-17T15:26:03.680Z,988.31
2023-05-17T15:27:03.367Z,988.26
2023-05-17T15:29:03.132Z,988.31
2023-05-17T15:30:03.228Z,988.20
2023-05-17T15:31:02.988Z,988.11
2023-05-17T15:32:03.097Z,988.17
2023-05-17T15:33:03.452Z,988.30
2023-05-17T15:34:04.043Z,988.17
2023-05-17T15:35:03.425Z,988.36
2023-05-17T15:36:03.178Z,988.26
2023-05-17T15:37:03.924Z,988.20
2023-05-17T15:39:03.138Z,988.27
2023-05-17T15:40:03.761Z,988.22
2023-05-17T15:42:03.307Z,988.14
2023-05-17T15:43:04.014Z,988.25
2023-05-17T15:45:03.029Z,988.33
2023-05-17T15:46:03.726Z,988.27
2023-05-17T15:47:03.955Z,988.36
2023-05-17T15:48:03.975Z,988.27